Time;durP1;ratioP1;P1;durP2;ratioP2;P2;SDS_P1;SDS_P2;PMS_P1;PMS_P2;Temp;Humidity;BMP_temperature;BMP_pressure;BME280_temperature;BME280_humidity;BME280_pressure;Samples;Min_cycle;Max_cycle;Signal;HPM_P1;HPM_P2
2022/09/28 00:00:46;;;;;;;;;;;;;;;;;;2089258;28;19925;-89
2022/09/28 00:01:47;;;;;;;;;;;;;;;;;;2104937;28;19962;-90
2022/09/28 00:02:47;;;;;;;;;;;;;;;;;;2096623;28;20383;-89
2022/09/28 00:03:48;;;;;;;;;;;;;;;;;;2080378;28;19953;-89
2022/09/28 00:04:48;;;;;;;;;;;;;;;;;;2088454;28;20346;-89
2022/09/28 00:05:48;;;;;;;;;;;;;;;;;;2105006;28;20006;-89
2022/09/28 00:06:49;;;;;;;;;;;;;;;;;;2105012;28;19923;-90
2022/09/28 00:07:49;;;;;;;;;;;;;;;;;;2088353;28;20409;-89
2022/09/28 00:08:49;;;;;;;;;;;;;;;;;;2088407;28;19986;-89
2022/09/28 00:09:50;;;;;;;;;;;;;;;;;;2088204;28;19942;-88
2022/09/28 00:10:53;;;;;;;;;;;;;;;;;;2079996;28;20355;-89
2022/09/28 00:11:55;;;;;;;;;;;;;;;;;;2088194;28;20508;-88
2022/09/28 00:12:55;;;;;;;;;;;;;;;;;;2104846;28;19912;-89
2022/09/28 00:13:58;;;;;;;;;;;;;;;;;;2096453;28;20391;-90
2022/09/28 00:14:59;;;;;;;;;;;;;;;;;;2097042;28;19917;-89
2022/09/28 00:16:00;;;;;;;;;;;;;;;;;;2096418;28;19921;-89
2022/09/28 00:17:01;;;;;;;;;;;;;;;;;;2096509;28;19916;-88
2022/09/28 00:18:01;;;;;;;;;;;;;;;;;;2104798;28;19955;-89
2022/09/28 00:19:01;;;;;;;;;;;;;;;;;;2088317;28;19990;-89
2022/09/28 00:20:04;;;;;;;;;;;;;;;;;;2080006;28;20356;-89
2022/09/28 00:21:04;;;;;;;;;;;;;;;;;;2088492;28;19912;-89
2022/09/28 00:22:05;;;;;;;;;;;;;;;;;;2088924;28;19913;-89
2022/09/28 00:23:05;;;;;;;;;;;;;;;;;;2088243;28;19912;-89
2022/09/28 00:24:11;;;;;;;;;;;;;;;;;;2088279;28;20025;-90
2022/09/28 00:25:12;;;;;;;;;;;;;;;;;;2087844;28;19944;-90
2022/09/28 00:26:12;;;;;;;;;;;;;;;;;;2096570;28;19912;-89
2022/09/28 00:27:12;;;;;;;;;;;;;;;;;;2096349;28;19916;-88
2022/09/28 00:28:13;;;;;;;;;;;;;;;;;;2088096;28;19952;-89
2022/09/28 00:29:19;;;;;;;;;;;;;;;;;;2104735;28;19923;-89
2022/09/28 00:30:19;;;;;;;;;;;;;;;;;;2095420;28;20015;-88
2022/09/28 00:31:20;;;;;;;;;;;;;;;;;;2096333;28;19935;-89
2022/09/28 00:32:23;;;;;;;;;;;;;;;;;;2096439;28;20433;-88
2022/09/28 00:33:23;;;;;;;;;;;;;;;;;;2088242;28;19913;-88
2022/09/28 00:34:24;;;;;;;;;;;;;;;;;;2088108;28;20394;-87
2022/09/28 00:35:24;;;;;;;;;;;;;;;;;;2088220;28;19936;-88
2022/09/28 00:36:26;;;;;;;;;;;;;;;;;;2088085;28;19913;-89
2022/09/28 00:37:27;;;;;;;;;;;;;;;;;;2088155;28;20281;-89
2022/09/28 00:38:29;;;;;;;;;;;;;;;;;;2088066;28;19931;-88
2022/09/28 00:39:34;;;;;;;;;;;;;;;;;;2096373;28;20022;-89
2022/09/28 00:40:34;;;;;;;;;;;;;;;;;;2087955;28;19913;-89
2022/09/28 00:41:35;;;;;;;;;;;;;;;;;;2079863;28;19924;-89
2022/09/28 00:42:35;;;;;;;;;;;;;;;;;;2088086;28;19913;-88
2022/09/28 00:43:35;;;;;;;;;;;;;;;;;;2088104;28;19989;-89
2022/09/28 00:44:38;;;;;;;;;;;;;;;;;;1739433;28;9999970;-89
2022/09/28 00:45:38;;;;;;;;;;;;;;;;;;2088254;28;19923;-88
2022/09/28 00:46:38;;;;;;;;;;;;;;;;;;2092067;28;20466;-88
2022/09/28 00:47:48;;;;;;;;;;;;;;;;;;2092388;28;19939;-87
2022/09/28 00:48:53;;;;;;;;;;;;;;;;;;1740213;28;10224198;-88
2022/09/28 00:49:57;;;;;;;;;;;;;;;;;;2103969;28;19935;-89
2022/09/28 00:50:58;;;;;;;;;;;;;;;;;;2104883;28;19951;-89
2022/09/28 00:52:00;;;;;;;;;;;;;;;;;;2104699;28;20067;-90
2022/09/28 00:53:00;;;;;;;;;;;;;;;;;;2104679;28;19951;-90
2022/09/28 00:54:01;;;;;;;;;;;;;;;;;;2096489;28;19913;-90
2022/09/28 00:55:04;;;;;;;;;;;;;;;;;;2088176;28;19929;-90
2022/09/28 00:56:06;;;;;;;;;;;;;;;;;;2080113;28;19987;-89
2022/09/28 00:57:07;;;;;;;;;;;;;;;;;;2080082;28;19917;-90
2022/09/28 00:58:10;;;;;;;;;;;;;;;;;;2088164;28;19974;-90
2022/09/28 00:59:10;;;;;;;;;;;;;;;;;;2088051;28;19975;-90
2022/09/28 01:00:11;;;;;;;;;;;;;;;;;;2088161;28;19912;-89
2022/09/28 01:01:11;;;;;;;;;;;;;;;;;;2088177;28;20052;-90
2022/09/28 01:02:12;;;;;;;;;;;;;;;;;;2088261;28;20505;-90
2022/09/28 01:03:13;;;;;;;;;;;;;;;;;;2088219;28;19912;-90
2022/09/28 01:04:13;;;;;;;;;;;;;;;;;;2088182;28;19990;-90
2022/09/28 01:05:13;;;;;;;;;;;;;;;;;;2088097;28;20281;-90
2022/09/28 01:06:17;;;;;;;;;;;;;;;;;;2079726;28;19913;-90
2022/09/28 01:07:17;;;;;;;;;;;;;;;;;;2088104;28;19971;-89
2022/09/28 01:08:19;;;;;;;;;;;;;;;;;;2087711;28;19917;-89
2022/09/28 01:09:20;;;;;;;;;;;;;;;;;;2087914;28;19913;-89
2022/09/28 01:10:21;;;;;;;;;;;;;;;;;;2104391;28;19912;-89
2022/09/28 01:11:21;;;;;;;;;;;;;;;;;;2104706;28;19920;-90
2022/09/28 01:12:22;;;;;;;;;;;;;;;;;;2088599;28;19913;-89
2022/09/28 01:13:23;;;;;;;;;;;;;;;;;;2104450;28;19990;-89
2022/09/28 01:14:24;;;;;;;;;;;;;;;;;;2096055;28;19970;-89
2022/09/28 01:15:25;;;;;;;;;;;;;;;;;;2087829;28;19912;-89
2022/09/28 01:16:29;;;;;;;;;;;;;;;;;;2104362;28;19912;-89
2022/09/28 01:17:33;;;;;;;;;;;;;;;;;;2103960;28;20397;-89
2022/09/28 01:18:40;;;;;;;;;;;;;;;;;;2087797;28;20377;-89
2022/09/28 01:19:47;;;;;;;;;;;;;;;;;;2087735;28;19956;-88
2022/09/28 01:20:56;;;;;;;;;;;;;;;;;;1732048;28;10214039;-89
2022/09/28 01:22:10;;;;;;;;;;;;;;;;;;2087781;28;20004;-89
2022/09/28 01:23:17;;;;;;;;;;;;;;;;;;2087713;28;19927;-89
2022/09/28 01:24:24;;;;;;;;;;;;;;;;;;2090005;28;20390;-89
2022/09/28 01:25:24;;;;;;;;;;;;;;;;;;2097915;28;19924;-90
2022/09/28 01:26:43;;;;;;;;;;;;;;;;;;2099662;28;19968;-90
2022/09/28 01:27:48;;;;;;;;;;;;;;;;;;2093606;28;19921;-89
2022/09/28 01:28:49;;;;;;;;;;;;;;;;;;2088370;28;19999;-91
2022/09/28 01:29:56;;;;;;;;;;;;;;;;;;2088782;28;19944;-91
2022/09/28 01:30:59;;;;;;;;;;;;;;;;;;2104428;28;19985;-90
2022/09/28 01:32:02;;;;;;;;;;;;;;;;;;2104136;28;19936;-89
2022/09/28 01:33:04;;;;;;;;;;;;;;;;;;2104464;28;20382;-90
2022/09/28 01:34:19;;;;;;;;;;;;;;;;;;2096338;28;20339;-91
2022/09/28 01:35:26;;;;;;;;;;;;;;;;;;2088341;28;19952;-90
2022/09/28 01:36:29;;;;;;;;;;;;;;;;;;2087816;28;19999;-92
2022/09/28 01:37:35;;;;;;;;;;;;;;;;;;2087823;28;19912;-90
2022/09/28 01:39:01;;;;;;;;;;;;;;;;;;2104545;28;20018;-90
2022/09/28 01:40:03;;;;;;;;;;;;;;;;;;2088689;28;20349;-91
2022/09/28 01:41:05;;;;;;;;;;;;;;;;;;2080020;28;19983;-92
2022/09/28 01:42:08;;;;;;;;;;;;;;;;;;2079752;28;19913;-90
2022/09/28 01:43:25;;;;;;;;;;;;;;;;;;2087838;28;19913;-90
2022/09/28 01:44:27;;;;;;;;;;;;;;;;;;2098217;28;19927;-90
2022/09/28 01:45:30;;;;;;;;;;;;;;;;;;2095843;28;19916;-90
2022/09/28 01:46:49;;;;;;;;;;;;;;;;;;2087851;28;19966;-90
2022/09/28 01:47:50;;;;;;;;;;;;;;;;;;2088593;28;20097;-91
2022/09/28 01:48:55;;;;;;;;;;;;;;;;;;2088345;28;19978;-90
2022/09/28 01:50:06;;;;;;;;;;;;;;;;;;2088759;28;20300;-90
2022/09/28 01:51:08;;;;;;;;;;;;;;;;;;2087575;28;19921;-90
2022/09/28 01:52:11;;;;;;;;;;;;;;;;;;2079598;28;19913;-89
2022/09/28 01:53:18;;;;;;;;;;;;;;;;;;2087863;28;19952;-89
2022/09/28 01:54:23;;;;;;;;;;;;;;;;;;2104289;28;20314;-90
2022/09/28 01:55:31;;;;;;;;;;;;;;;;;;2095577;28;19944;-89
2022/09/28 01:56:44;;;;;;;;;;;;;;;;;;2080279;28;20000;-90
2022/09/28 01:57:47;;;;;;;;;;;;;;;;;;2087605;28;19919;-90
2022/09/28 01:58:49;;;;;;;;;;;;;;;;;;2087871;28;19917;-89
2022/09/28 02:00:09;;;;;;;;;;;;;;;;;;2104135;28;19919;-90
2022/09/28 02:01:17;;;;;;;;;;;;;;;;;;2101969;28;19912;-89
2022/09/28 02:02:24;;;;;;;;;;;;;;;;;;2104342;28;19956;-90
2022/09/28 02:03:30;;;;;;;;;;;;;;;;;;2102538;28;19913;-89
2022/09/28 02:04:31;;;;;;;;;;;;;;;;;;2088204;28;20100;-89
2022/09/28 02:05:45;;;;;;;;;;;;;;;;;;2087603;28;20400;-89
2022/09/28 02:06:50;;;;;;;;;;;;;;;;;;2087773;28;20392;-89
2022/09/28 02:08:02;;;;;;;;;;;;;;;;;;1421351;28;10247156;-89
2022/09/28 02:09:10;;;;;;;;;;;;;;;;;;2101493;28;20303;-89
2022/09/28 02:10:17;;;;;;;;;;;;;;;;;;2087526;28;20316;-89
2022/09/28 02:11:18;;;;;;;;;;;;;;;;;;2080288;28;19935;-89
2022/09/28 02:12:22;;;;;;;;;;;;;;;;;;2087497;28;20320;-89
2022/09/28 02:13:32;;;;;;;;;;;;;;;;;;2079691;28;20380;-89
2022/09/28 02:14:33;;;;;;;;;;;;;;;;;;2087483;28;20037;-89
2022/09/28 02:15:43;;;;;;;;;;;;;;;;;;2087595;28;20442;-89
2022/09/28 02:16:44;;;;;;;;;;;;;;;;;;2087519;28;19913;-89
2022/09/28 02:17:44;;;;;;;;;;;;;;;;;;2087553;28;20217;-89
2022/09/28 02:18:45;;;;;;;;;;;;;;;;;;2087424;28;19974;-89
2022/09/28 02:19:45;;;;;;;;;;;;;;;;;;2087524;28;20007;-89
2022/09/28 02:20:59;;;;;;;;;;;;;;;;;;2087469;28;19924;-89
2022/09/28 02:22:05;;;;;;;;;;;;;;;;;;2090534;28;19948;-89
2022/09/28 02:23:06;;;;;;;;;;;;;;;;;;2087257;28;20359;-89
2022/09/28 02:24:15;;;;;;;;;;;;;;;;;;2087547;28;19919;-90
2022/09/28 02:25:21;;;;;;;;;;;;;;;;;;2104054;28;19912;-90
2022/09/28 02:26:23;;;;;;;;;;;;;;;;;;2095185;28;20330;-90
2022/09/28 02:27:35;;;;;;;;;;;;;;;;;;2087539;28;19912;-89
2022/09/28 02:28:37;;;;;;;;;;;;;;;;;;2104038;28;19916;-90
2022/09/28 02:29:37;;;;;;;;;;;;;;;;;;2103943;28;20008;-90
2022/09/28 02:30:58;;;;;;;;;;;;;;;;;;2088399;28;19987;-90
2022/09/28 02:31:58;;;;;;;;;;;;;;;;;;2088289;28;20251;-89
2022/09/28 02:33:02;;;;;;;;;;;;;;;;;;2088484;28;19913;-90
2022/09/28 02:34:02;;;;;;;;;;;;;;;;;;2088182;28;19917;-89
2022/09/28 02:35:02;;;;;;;;;;;;;;;;;;2087486;28;19963;-89
2022/09/28 02:36:03;;;;;;;;;;;;;;;;;;2087449;28;19913;-89
2022/09/28 02:37:03;;;;;;;;;;;;;;;;;;2088179;28;19913;-90
2022/09/28 02:38:03;;;;;;;;;;;;;;;;;;2103961;28;20396;-89
2022/09/28 02:39:04;;;;;;;;;;;;;;;;;;2095941;28;20367;-89
2022/09/28 02:40:17;;;;;;;;;;;;;;;;;;2079224;28;19913;-90
2022/09/28 02:41:33;;;;;;;;;;;;;;;;;;2087659;28;19924;-90
2022/09/28 02:42:39;;;;;;;;;;;;;;;;;;2087545;28;19913;-90
2022/09/28 02:43:57;;;;;;;;;;;;;;;;;;2089069;28;19925;-89
2022/09/28 02:45:00;;;;;;;;;;;;;;;;;;2103500;28;19971;-88
2022/09/28 02:46:10;;;;;;;;;;;;;;;;;;2106426;28;19912;-90
2022/09/28 02:47:24;;;;;;;;;;;;;;;;;;2088322;28;20089;-90
2022/09/28 02:48:27;;;;;;;;;;;;;;;;;;2105370;28;20001;-90
2022/09/28 02:49:27;;;;;;;;;;;;;;;;;;2105521;28;19919;-90
2022/09/28 02:50:38;;;;;;;;;;;;;;;;;;2091440;28;19916;-96
2022/09/28 02:51:58;;;;;;;;;;;;;;;;;;2091554;28;19978;-95
2022/09/28 02:53:07;;;;;;;;;;;;;;;;;;2091215;28;19970;-96
2022/09/28 02:54:16;;;;;;;;;;;;;;;;;;2090992;28;19916;-96
2022/09/28 02:55:32;;;;;;;;;;;;;;;;;;2090642;28;20020;-95
2022/09/28 02:56:43;;;;;;;;;;;;;;;;;;2090588;28;19913;-95
2022/09/28 02:57:43;;;;;;;;;;;;;;;;;;2083868;28;19913;-96
2022/09/28 02:58:49;;;;;;;;;;;;;;;;;;2091248;28;19990;-96
2022/09/28 03:00:01;;;;;;;;;;;;;;;;;;2098364;28;20286;-95
2022/09/28 03:01:09;;;;;;;;;;;;;;;;;;2099273;28;19912;-95
2022/09/28 03:02:22;;;;;;;;;;;;;;;;;;2090796;28;20007;-96
2022/09/28 03:03:29;;;;;;;;;;;;;;;;;;2090659;28;19912;-96
2022/09/28 03:04:35;;;;;;;;;;;;;;;;;;2091038;28;20102;-95
2022/09/28 03:05:54;;;;;;;;;;;;;;;;;;2083017;28;19924;-96
2022/09/28 03:07:13;;;;;;;;;;;;;;;;;;2094033;28;19912;-95
2022/09/28 03:08:27;;;;;;;;;;;;;;;;;;2090611;28;19951;-96
2022/09/28 03:09:32;;;;;;;;;;;;;;;;;;2090535;28;19966;-90
2022/09/28 03:11:01;;;;;;;;;;;;;;;;;;2089801;28;19973;-90
2022/09/28 03:12:10;;;;;;;;;;;;;;;;;;818881;28;10001210;-90
2022/09/28 03:13:11;;;;;;;;;;;;;;;;;;2096955;28;20491;-91
2022/09/28 03:14:11;;;;;;;;;;;;;;;;;;2098408;28;19948;-91
2022/09/28 03:15:19;;;;;;;;;;;;;;;;;;2088836;28;19920;-90
2022/09/28 03:16:19;;;;;;;;;;;;;;;;;;2088820;28;20433;-90
2022/09/28 03:17:19;;;;;;;;;;;;;;;;;;2089033;28;19917;-90
2022/09/28 03:18:20;;;;;;;;;;;;;;;;;;2089589;28;19917;-90
2022/09/28 03:19:22;;;;;;;;;;;;;;;;;;2105594;28;19935;-90
2022/09/28 03:20:22;;;;;;;;;;;;;;;;;;2105279;28;19912;-90
2022/09/28 03:21:23;;;;;;;;;;;;;;;;;;2089600;28;19913;-90
2022/09/28 03:22:23;;;;;;;;;;;;;;;;;;2088931;28;19913;-90
2022/09/28 03:23:23;;;;;;;;;;;;;;;;;;2088917;28;19913;-91
2022/09/28 03:24:24;;;;;;;;;;;;;;;;;;2080573;28;20328;-90
2022/09/28 03:25:24;;;;;;;;;;;;;;;;;;2089124;28;19913;-91
2022/09/28 03:26:24;;;;;;;;;;;;;;;;;;2089597;28;19921;-90
2022/09/28 03:27:24;;;;;;;;;;;;;;;;;;2105477;28;19977;-91
2022/09/28 03:28:26;;;;;;;;;;;;;;;;;;2097020;28;20375;-90
2022/09/28 03:29:30;;;;;;;;;;;;;;;;;;2088979;28;19913;-91
2022/09/28 03:30:30;;;;;;;;;;;;;;;;;;2088975;28;20368;-91
2022/09/28 03:31:40;;;;;;;;;;;;;;;;;;2089540;28;20027;-90
2022/09/28 03:32:40;;;;;;;;;;;;;;;;;;2089568;28;20106;-90
2022/09/28 03:33:41;;;;;;;;;;;;;;;;;;2088709;28;19912;-90
2022/09/28 03:34:41;;;;;;;;;;;;;;;;;;2088802;28;20295;-91
2022/09/28 03:35:44;;;;;;;;;;;;;;;;;;2097100;28;19920;-90
2022/09/28 03:36:45;;;;;;;;;;;;;;;;;;2096984;28;20019;-88
2022/09/28 03:37:45;;;;;;;;;;;;;;;;;;2088736;28;19917;-89
2022/09/28 03:38:45;;;;;;;;;;;;;;;;;;2089365;28;20315;-91
2022/09/28 03:39:46;;;;;;;;;;;;;;;;;;2105207;28;19966;-89
2022/09/28 03:40:55;;;;;;;;;;;;;;;;;;2096943;28;19920;-90
2022/09/28 03:41:58;;;;;;;;;;;;;;;;;;2088696;28;20000;-88
2022/09/28 03:42:59;;;;;;;;;;;;;;;;;;2104783;28;19966;-89
2022/09/28 03:44:00;;;;;;;;;;;;;;;;;;2104679;28;20393;-88
2022/09/28 03:45:00;;;;;;;;;;;;;;;;;;2087824;28;19913;-89
2022/09/28 03:46:01;;;;;;;;;;;;;;;;;;2087931;28;19920;-89
2022/09/28 03:47:01;;;;;;;;;;;;;;;;;;2088693;28;19924;-89
2022/09/28 03:48:01;;;;;;;;;;;;;;;;;;2104487;28;19912;-89
2022/09/28 03:49:02;;;;;;;;;;;;;;;;;;2104345;28;20026;-89
2022/09/28 03:50:02;;;;;;;;;;;;;;;;;;2088855;28;20349;-88
2022/09/28 03:51:04;;;;;;;;;;;;;;;;;;2104602;28;19959;-88
2022/09/28 03:52:04;;;;;;;;;;;;;;;;;;2096477;28;20311;-88
2022/09/28 03:53:05;;;;;;;;;;;;;;;;;;2088634;28;19913;-88
2022/09/28 03:54:05;;;;;;;;;;;;;;;;;;2089266;28;20298;-87
2022/09/28 03:55:05;;;;;;;;;;;;;;;;;;2088470;28;20443;-88
2022/09/28 03:56:07;;;;;;;;;;;;;;;;;;2088543;28;19912;-88
2022/09/28 03:57:07;;;;;;;;;;;;;;;;;;2097253;28;20401;-89
2022/09/28 03:58:08;;;;;;;;;;;;;;;;;;1727143;28;10370721;-89
2022/09/28 03:59:08;;;;;;;;;;;;;;;;;;2088743;28;19913;-89
2022/09/28 04:00:09;;;;;;;;;;;;;;;;;;2096090;28;20365;-89
2022/09/28 04:01:16;;;;;;;;;;;;;;;;;;2096612;28;19919;-89
2022/09/28 04:02:17;;;;;;;;;;;;;;;;;;2097512;28;19928;-88
2022/09/28 04:03:17;;;;;;;;;;;;;;;;;;2096844;28;19916;-89
2022/09/28 04:04:17;;;;;;;;;;;;;;;;;;2080193;28;19924;-90
2022/09/28 04:05:18;;;;;;;;;;;;;;;;;;2088221;28;19920;-89
2022/09/28 04:06:18;;;;;;;;;;;;;;;;;;2088465;28;19917;-89
2022/09/28 04:07:18;;;;;;;;;;;;;;;;;;2088356;28;20415;-89
2022/09/28 04:08:18;;;;;;;;;;;;;;;;;;2096372;28;19913;-89
2022/09/28 04:09:19;;;;;;;;;;;;;;;;;;2104933;28;20475;-90
2022/09/28 04:10:19;;;;;;;;;;;;;;;;;;2096583;28;19912;-89
2022/09/28 04:11:19;;;;;;;;;;;;;;;;;;2088550;28;19913;-89
2022/09/28 04:12:20;;;;;;;;;;;;;;;;;;2089072;28;19942;-89
2022/09/28 04:13:29;;;;;;;;;;;;;;;;;;2032724;28;10246612;-89
2022/09/28 04:14:29;;;;;;;;;;;;;;;;;;2089055;28;19913;-89
2022/09/28 04:15:29;;;;;;;;;;;;;;;;;;2088981;28;19913;-89
2022/09/28 04:16:30;;;;;;;;;;;;;;;;;;2089141;28;19913;-89
2022/09/28 04:17:30;;;;;;;;;;;;;;;;;;2088204;28;19963;-89
2022/09/28 04:18:32;;;;;;;;;;;;;;;;;;2080117;28;20404;-90
2022/09/28 04:19:32;;;;;;;;;;;;;;;;;;2088321;28;20063;-89
2022/09/28 04:20:32;;;;;;;;;;;;;;;;;;2088466;28;20314;-90
2022/09/28 04:21:33;;;;;;;;;;;;;;;;;;1731304;28;10245368;-89
2022/09/28 04:22:36;;;;;;;;;;;;;;;;;;2096552;28;19958;-89
2022/09/28 04:23:37;;;;;;;;;;;;;;;;;;2096955;28;19932;-89
2022/09/28 04:24:38;;;;;;;;;;;;;;;;;;2096594;28;20399;-89
2022/09/28 04:25:38;;;;;;;;;;;;;;;;;;2088280;28;19913;-89
2022/09/28 04:26:39;;;;;;;;;;;;;;;;;;2104783;28;19989;-89
2022/09/28 04:29:16;;;;;;;;;;;;;;;;;;2088313;28;19921;-90
2022/09/28 04:30:17;;;;;;;;;;;;;;;;;;2105088;28;19931;-90
2022/09/28 04:31:19;;;;;;;;;;;;;;;;;;2105010;28;19926;-89
2022/09/28 04:32:20;;;;;;;;;;;;;;;;;;2088924;28;20000;-88
2022/09/28 04:33:20;;;;;;;;;;;;;;;;;;2088253;28;19917;-88
2022/09/28 04:34:21;;;;;;;;;;;;;;;;;;2080250;28;20442;-90
2022/09/28 04:35:21;;;;;;;;;;;;;;;;;;2086492;28;20004;-89
2022/09/28 04:36:23;;;;;;;;;;;;;;;;;;2098651;28;19924;-89
2022/09/28 04:37:24;;;;;;;;;;;;;;;;;;2097632;28;19912;-90
2022/09/28 04:38:24;;;;;;;;;;;;;;;;;;2093039;28;20330;-89
2022/09/28 04:39:24;;;;;;;;;;;;;;;;;;2088187;28;19913;-90
2022/09/28 04:40:24;;;;;;;;;;;;;;;;;;2088380;28;20344;-89
2022/09/28 04:41:25;;;;;;;;;;;;;;;;;;2097916;28;19960;-88
2022/09/28 04:42:25;;;;;;;;;;;;;;;;;;2091261;28;19912;-89
2022/09/28 04:43:26;;;;;;;;;;;;;;;;;;2091399;28;19932;-90
2022/09/28 04:44:26;;;;;;;;;;;;;;;;;;2096739;28;19912;-88
2022/09/28 04:45:27;;;;;;;;;;;;;;;;;;2088732;28;19956;-89
2022/09/28 04:46:27;;;;;;;;;;;;;;;;;;2088266;28;19966;-90
2022/09/28 04:47:28;;;;;;;;;;;;;;;;;;2088431;28;19913;-90
2022/09/28 04:48:28;;;;;;;;;;;;;;;;;;2088047;28;20002;-90
2022/09/28 04:49:29;;;;;;;;;;;;;;;;;;2096266;28;19912;-89
2022/09/28 04:50:29;;;;;;;;;;;;;;;;;;2104787;28;19916;-90
2022/09/28 04:51:30;;;;;;;;;;;;;;;;;;2088165;28;19967;-90
2022/09/28 04:52:36;;;;;;;;;;;;;;;;;;2088099;28;19952;-90
2022/09/28 04:53:39;;;;;;;;;;;;;;;;;;2089709;28;19912;-89
2022/09/28 04:54:39;;;;;;;;;;;;;;;;;;2088164;28;19912;-90
2022/09/28 04:55:39;;;;;;;;;;;;;;;;;;2088114;28;19920;-90
2022/09/28 04:56:40;;;;;;;;;;;;;;;;;;2088132;28;20256;-91
2022/09/28 04:57:40;;;;;;;;;;;;;;;;;;2104730;28;19912;-91
2022/09/28 04:58:41;;;;;;;;;;;;;;;;;;2096756;28;20207;-91
2022/09/28 04:59:41;;;;;;;;;;;;;;;;;;2079917;28;19968;-91
2022/09/28 05:00:42;;;;;;;;;;;;;;;;;;2088238;28;19916;-90
2022/09/28 05:01:42;;;;;;;;;;;;;;;;;;2088099;28;20461;-90
2022/09/28 05:02:42;;;;;;;;;;;;;;;;;;2088027;28;19924;-90
2022/09/28 05:03:43;;;;;;;;;;;;;;;;;;2088265;28;20384;-90
2022/09/28 05:04:43;;;;;;;;;;;;;;;;;;2088267;28;19999;-90
2022/09/28 05:05:44;;;;;;;;;;;;;;;;;;2096548;28;19916;-90
2022/09/28 05:06:44;;;;;;;;;;;;;;;;;;2087969;28;20362;-90
2022/09/28 05:07:44;;;;;;;;;;;;;;;;;;2088103;28;20375;-89
2022/09/28 05:08:45;;;;;;;;;;;;;;;;;;2104520;28;20024;-89
2022/09/28 05:09:46;;;;;;;;;;;;;;;;;;2096074;28;19929;-89
2022/09/28 05:10:46;;;;;;;;;;;;;;;;;;2088002;28;19917;-89
2022/09/28 05:11:51;;;;;;;;;;;;;;;;;;2087414;28;19920;-90
2022/09/28 05:12:52;;;;;;;;;;;;;;;;;;2088814;28;20340;-90
2022/09/28 05:13:52;;;;;;;;;;;;;;;;;;2104475;28;19954;-90
2022/09/28 05:14:52;;;;;;;;;;;;;;;;;;2103917;28;19916;-90
2022/09/28 05:15:54;;;;;;;;;;;;;;;;;;2088025;28;19917;-90
2022/09/28 05:16:54;;;;;;;;;;;;;;;;;;2103853;28;20394;-90
2022/09/28 05:17:58;;;;;;;;;;;;;;;;;;1869976;28;10313185;-90
2022/09/28 05:18:58;;;;;;;;;;;;;;;;;;2088193;28;19912;-91
2022/09/28 05:19:59;;;;;;;;;;;;;;;;;;2104040;28;20049;-91
2022/09/28 05:21:00;;;;;;;;;;;;;;;;;;2103831;28;19920;-91
2022/09/28 05:22:04;;;;;;;;;;;;;;;;;;2088070;28;19913;-91
2022/09/28 05:23:05;;;;;;;;;;;;;;;;;;2088019;28;19928;-91
2022/09/28 05:24:06;;;;;;;;;;;;;;;;;;2088238;28;20307;-90
2022/09/28 05:25:06;;;;;;;;;;;;;;;;;;2088794;28;19917;-92
2022/09/28 05:26:07;;;;;;;;;;;;;;;;;;2088766;28;19913;-92
2022/09/28 05:27:07;;;;;;;;;;;;;;;;;;2089169;28;20291;-92
2022/09/28 05:28:07;;;;;;;;;;;;;;;;;;2087353;28;20360;-91
2022/09/28 05:29:08;;;;;;;;;;;;;;;;;;2087561;28;19948;-90
2022/09/28 05:30:09;;;;;;;;;;;;;;;;;;2087646;28;19913;-93
2022/09/28 05:31:10;;;;;;;;;;;;;;;;;;2079150;28;19918;-91
2022/09/28 05:32:10;;;;;;;;;;;;;;;;;;2087471;28;20000;-91
2022/09/28 05:33:10;;;;;;;;;;;;;;;;;;2087679;28;19917;-90
2022/09/28 05:34:10;;;;;;;;;;;;;;;;;;2087845;28;19923;-91
2022/09/28 05:35:13;;;;;;;;;;;;;;;;;;2095990;28;19912;-93
2022/09/28 05:36:13;;;;;;;;;;;;;;;;;;2104262;28;19912;-91
2022/09/28 05:37:13;;;;;;;;;;;;;;;;;;2095654;28;20021;-91
2022/09/28 05:38:14;;;;;;;;;;;;;;;;;;2087768;28;20347;-92
2022/09/28 05:39:14;;;;;;;;;;;;;;;;;;2095759;28;19916;-91
2022/09/28 05:40:15;;;;;;;;;;;;;;;;;;2095628;28;20117;-92
2022/09/28 05:41:15;;;;;;;;;;;;;;;;;;2078973;28;19917;-91
2022/09/28 05:42:15;;;;;;;;;;;;;;;;;;2087358;28;19959;-92
2022/09/28 05:43:15;;;;;;;;;;;;;;;;;;2088946;28;19912;-92
2022/09/28 05:44:16;;;;;;;;;;;;;;;;;;2088535;28;20362;-92
2022/09/28 05:45:16;;;;;;;;;;;;;;;;;;2087994;28;19928;-91
2022/09/28 05:46:17;;;;;;;;;;;;;;;;;;2088365;28;19959;-92
2022/09/28 05:47:17;;;;;;;;;;;;;;;;;;2088633;28;19917;-92
2022/09/28 05:48:17;;;;;;;;;;;;;;;;;;2088377;28;20388;-92
2022/09/28 05:49:18;;;;;;;;;;;;;;;;;;2104253;28;20006;-91
2022/09/28 05:50:18;;;;;;;;;;;;;;;;;;2104267;28;19912;-91
2022/09/28 05:51:19;;;;;;;;;;;;;;;;;;2087519;28;19913;-92
2022/09/28 05:52:19;;;;;;;;;;;;;;;;;;2079467;28;19913;-91
2022/09/28 05:53:20;;;;;;;;;;;;;;;;;;2087526;28;19963;-92
2022/09/28 05:54:20;;;;;;;;;;;;;;;;;;2088490;28;19984;-92
2022/09/28 05:55:20;;;;;;;;;;;;;;;;;;2103777;28;19912;-91
2022/09/28 05:56:20;;;;;;;;;;;;;;;;;;2104039;28;19948;-92
2022/09/28 05:57:21;;;;;;;;;;;;;;;;;;2088415;28;19951;-89
2022/09/28 05:58:21;;;;;;;;;;;;;;;;;;2088013;28;20264;-89
2022/09/28 05:59:22;;;;;;;;;;;;;;;;;;2087830;28;19920;-91
2022/09/28 06:00:22;;;;;;;;;;;;;;;;;;2088028;28;19920;-90
2022/09/28 06:01:23;;;;;;;;;;;;;;;;;;2103955;28;20057;-91
2022/09/28 06:02:23;;;;;;;;;;;;;;;;;;2095667;28;20260;-91
2022/09/28 06:03:23;;;;;;;;;;;;;;;;;;2079219;28;19913;-90
2022/09/28 06:04:24;;;;;;;;;;;;;;;;;;2087344;28;19920;-91
2022/09/28 06:05:24;;;;;;;;;;;;;;;;;;2087345;28;20017;-91
2022/09/28 06:06:24;;;;;;;;;;;;;;;;;;2079190;28;20311;-89
2022/09/28 06:07:25;;;;;;;;;;;;;;;;;;2087368;28;19917;-90
2022/09/28 06:08:25;;;;;;;;;;;;;;;;;;2087900;28;20066;-89
2022/09/28 06:09:25;;;;;;;;;;;;;;;;;;2087894;28;20387;-90
2022/09/28 06:10:26;;;;;;;;;;;;;;;;;;2087173;28;19912;-90
2022/09/28 06:11:27;;;;;;;;;;;;;;;;;;2087046;28;19956;-89
2022/09/28 06:12:27;;;;;;;;;;;;;;;;;;2103883;28;20330;-89
2022/09/28 06:13:28;;;;;;;;;;;;;;;;;;2095445;28;20013;-89
2022/09/28 06:14:28;;;;;;;;;;;;;;;;;;2078525;28;19917;-90
2022/09/28 06:15:29;;;;;;;;;;;;;;;;;;2086601;28;19955;-89
2022/09/28 06:16:30;;;;;;;;;;;;;;;;;;2086825;28;20414;-90
2022/09/28 06:17:30;;;;;;;;;;;;;;;;;;2086793;28;19951;-89
2022/09/28 06:18:30;;;;;;;;;;;;;;;;;;2086971;28;19912;-90
2022/09/28 06:19:30;;;;;;;;;;;;;;;;;;2087296;28;19919;-89
2022/09/28 06:20:35;;;;;;;;;;;;;;;;;;2087763;28;19917;-91
2022/09/28 06:21:35;;;;;;;;;;;;;;;;;;2103730;28;19912;-89
2022/09/28 06:22:36;;;;;;;;;;;;;;;;;;2095570;28;19913;-90
2022/09/28 06:23:37;;;;;;;;;;;;;;;;;;2088204;28;19954;-90
2022/09/28 06:24:37;;;;;;;;;;;;;;;;;;2088935;28;19916;-91
2022/09/28 06:25:38;;;;;;;;;;;;;;;;;;2088935;28;20387;-91
2022/09/28 06:26:38;;;;;;;;;;;;;;;;;;2105587;28;20043;-90
2022/09/28 06:27:41;;;;;;;;;;;;;;;;;;2096912;28;19985;-90
2022/09/28 06:28:42;;;;;;;;;;;;;;;;;;2097134;28;20303;-89
2022/09/28 06:29:42;;;;;;;;;;;;;;;;;;2105529;28;19916;-90
2022/09/28 06:30:42;;;;;;;;;;;;;;;;;;2088832;28;19936;-92
2022/09/28 06:31:44;;;;;;;;;;;;;;;;;;2080351;28;19917;-92
2022/09/28 06:32:44;;;;;;;;;;;;;;;;;;2089011;28;20000;-92
2022/09/28 06:33:44;;;;;;;;;;;;;;;;;;2105255;28;20379;-91
2022/09/28 06:34:45;;;;;;;;;;;;;;;;;;2105432;28;19966;-91
2022/09/28 06:35:45;;;;;;;;;;;;;;;;;;2088601;28;19919;-90
2022/09/28 06:36:46;;;;;;;;;;;;;;;;;;2088747;28;19956;-89
2022/09/28 06:37:46;;;;;;;;;;;;;;;;;;2088532;28;20310;-90
2022/09/28 06:38:47;;;;;;;;;;;;;;;;;;2088393;28;19913;-90
2022/09/28 06:39:47;;;;;;;;;;;;;;;;;;1729750;28;10295909;-90
2022/09/28 06:40:48;;;;;;;;;;;;;;;;;;2097410;28;20413;-89
2022/09/28 06:41:48;;;;;;;;;;;;;;;;;;2105607;28;19963;-91
2022/09/28 06:43:01;;;;;;;;;;;;;;;;;;2088830;28;20437;-90
2022/09/28 06:44:02;;;;;;;;;;;;;;;;;;2088860;28;20023;-89
2022/09/28 06:45:03;;;;;;;;;;;;;;;;;;2089210;28;19913;-89
2022/09/28 06:46:04;;;;;;;;;;;;;;;;;;2105185;28;19912;-90
2022/09/28 06:47:04;;;;;;;;;;;;;;;;;;2097115;28;19948;-90
2022/09/28 06:48:05;;;;;;;;;;;;;;;;;;2088677;28;19913;-90
2022/09/28 06:49:08;;;;;;;;;;;;;;;;;;2096958;28;19917;-93
2022/09/28 06:50:13;;;;;;;;;;;;;;;;;;1739786;28;10205610;-93
2022/09/28 06:51:14;;;;;;;;;;;;;;;;;;2097617;28;19953;-93
2022/09/28 06:52:14;;;;;;;;;;;;;;;;;;2105465;28;19964;-90
2022/09/28 06:53:14;;;;;;;;;;;;;;;;;;2089503;28;20434;-92
2022/09/28 06:54:15;;;;;;;;;;;;;;;;;;2089839;28;19982;-93
2022/09/28 06:55:15;;;;;;;;;;;;;;;;;;2089502;28;19913;-93
2022/09/28 06:56:16;;;;;;;;;;;;;;;;;;2089892;28;19919;-92
2022/09/28 06:57:17;;;;;;;;;;;;;;;;;;2089613;28;19916;-90
2022/09/28 06:58:19;;;;;;;;;;;;;;;;;;2089635;28;20358;-93
2022/09/28 06:59:19;;;;;;;;;;;;;;;;;;2089717;28;19913;-93
2022/09/28 07:00:20;;;;;;;;;;;;;;;;;;2089723;28;19913;-90
2022/09/28 07:01:20;;;;;;;;;;;;;;;;;;2088879;28;19996;-93
2022/09/28 07:02:21;;;;;;;;;;;;;;;;;;2088939;28;19912;-93
2022/09/28 07:03:21;;;;;;;;;;;;;;;;;;2089002;28;20016;-90
2022/09/28 07:04:22;;;;;;;;;;;;;;;;;;2081031;28;20374;-93
2022/09/28 07:05:25;;;;;;;;;;;;;;;;;;2080851;28;20046;-93
2022/09/28 07:06:27;;;;;;;;;;;;;;;;;;2089138;28;20000;-92
2022/09/28 07:07:28;;;;;;;;;;;;;;;;;;2089627;28;19912;-93
2022/09/28 07:08:28;;;;;;;;;;;;;;;;;;2088783;28;19952;-92